sensor_id;sensor_type;location;lat;lon;timestamp;temperature;humidity
45237;DHT22;30973;51.442;3.580;2023-09-30T10:02:47;20.60;99.90
45237;DHT22;30973;51.442;3.580;2023-09-30T10:05:16;20.40;99.90
45237;DHT22;30973;51.442;3.580;2023-09-30T10:07:52;20.40;99.90
45237;DHT22;30973;51.442;3.580;2023-09-30T10:10:21;20.50;99.90
45237;DHT22;30973;51.442;3.580;2023-09-30T10:12:49;20.50;99.90
45237;DHT22;30973;51.442;3.580;2023-09-30T10:18:05;20.50;99.90
45237;DHT22;30973;51.442;3.580;2023-09-30T10:20:38;20.70;99.90
45237;DHT22;30973;51.442;3.580;2023-09-30T10:25:45;20.80;99.90
45237;DHT22;30973;51.442;3.580;2023-09-30T10:28:35;20.80;99.90
45237;DHT22;30973;51.442;3.580;2023-09-30T10:31:19;20.90;99.90
45237;DHT22;30973;51.442;3.580;2023-09-30T10:36:39;21.20;99.90
45237;DHT22;30973;51.442;3.580;2023-09-30T10:39:12;21.40;99.90
45237;DHT22;30973;51.442;3.580;2023-09-30T10:46:49;21.40;99.90
45237;DHT22;30973;51.442;3.580;2023-09-30T10:49:30;21.40;99.90
45237;DHT22;30973;51.442;3.580;2023-09-30T10:52:00;21.40;99.90
45237;DHT22;30973;51.442;3.580;2023-09-30T10:54:32;21.50;99.90
45237;DHT22;30973;51.442;3.580;2023-09-30T10:57:00;21.50;99.90
45237;DHT22;30973;51.442;3.580;2023-09-30T10:59:28;21.60;99.90
45237;DHT22;30973;51.442;3.580;2023-09-30T11:01:57;21.60;99.90
45237;DHT22;30973;51.442;3.580;2023-09-30T11:04:25;21.60;99.90
45237;DHT22;30973;51.442;3.580;2023-09-30T11:06:54;21.70;99.90
45237;DHT22;30973;51.442;3.580;2023-09-30T11:09:22;21.70;99.90
45237;DHT22;30973;51.442;3.580;2023-09-30T11:11:53;21.70;99.90
45237;DHT22;30973;51.442;3.580;2023-09-30T11:14:26;21.70;99.90
45237;DHT22;30973;51.442;3.580;2023-09-30T11:16:58;21.80;99.90
45237;DHT22;30973;51.442;3.580;2023-09-30T11:19:27;21.90;99.90
45237;DHT22;30973;51.442;3.580;2023-09-30T11:21:55;21.90;99.90
45237;DHT22;30973;51.442;3.580;2023-09-30T11:24:22;22.00;99.90
45237;DHT22;30973;51.442;3.580;2023-09-30T11:26:53;22.00;99.90
45237;DHT22;30973;51.442;3.580;2023-09-30T11:29:20;22.10;99.90
45237;DHT22;30973;51.442;3.580;2023-09-30T11:31:49;22.10;99.90
45237;DHT22;30973;51.442;3.580;2023-09-30T11:34:18;22.20;99.90
45237;DHT22;30973;51.442;3.580;2023-09-30T11:36:53;22.10;99.90
45237;DHT22;30973;51.442;3.580;2023-09-30T11:39:24;22.20;99.90
45237;DHT22;30973;51.442;3.580;2023-09-30T11:41:52;22.30;99.90
45237;DHT22;30973;51.442;3.580;2023-09-30T11:44:19;22.40;99.90
45237;DHT22;30973;51.442;3.580;2023-09-30T11:46:57;22.40;99.90
45237;DHT22;30973;51.442;3.580;2023-09-30T11:49:31;22.10;99.90
45237;DHT22;30973;51.442;3.580;2023-09-30T11:52:01;21.90;99.90
45237;DHT22;30973;51.442;3.580;2023-09-30T11:54:39;21.90;99.90
45237;DHT22;30973;51.442;3.580;2023-09-30T11:57:10;21.90;99.90
45237;DHT22;30973;51.442;3.580;2023-09-30T11:59:38;22.00;99.90
45237;DHT22;30973;51.442;3.580;2023-09-30T12:02:06;22.10;99.90
45237;DHT22;30973;51.442;3.580;2023-09-30T12:04:44;22.30;99.90
45237;DHT22;30973;51.442;3.580;2023-09-30T12:07:12;22.40;99.90
45237;DHT22;30973;51.442;3.580;2023-09-30T12:09:40;22.30;99.90
45237;DHT22;30973;51.442;3.580;2023-09-30T12:12:08;22.20;99.90
45237;DHT22;30973;51.442;3.580;2023-09-30T12:14:39;22.20;99.90
45237;DHT22;30973;51.442;3.580;2023-09-30T12:17:07;22.10;99.90
45237;DHT22;30973;51.442;3.580;2023-09-30T12:19:40;22.10;99.90
45237;DHT22;30973;51.442;3.580;2023-09-30T12:22:09;22.10;99.90
45237;DHT22;30973;51.442;3.580;2023-09-30T12:24:37;22.30;99.90
45237;DHT22;30973;51.442;3.580;2023-09-30T12:27:04;22.40;99.90
45237;DHT22;30973;51.442;3.580;2023-09-30T12:29:31;22.40;99.90
45237;DHT22;30973;51.442;3.580;2023-09-30T12:31:59;22.30;99.90
45237;DHT22;30973;51.442;3.580;2023-09-30T12:34:28;22.20;99.90
45237;DHT22;30973;51.442;3.580;2023-09-30T12:36:55;22.10;99.90
45237;DHT22;30973;51.442;3.580;2023-09-30T12:39:25;22.00;99.90
45237;DHT22;30973;51.442;3.580;2023-09-30T12:41:53;21.90;99.90
45237;DHT22;30973;51.442;3.580;2023-09-30T12:44:21;21.80;99.90
45237;DHT22;30973;51.442;3.580;2023-09-30T12:46:50;21.70;99.90
45237;DHT22;30973;51.442;3.580;2023-09-30T12:49:17;21.90;99.90
45237;DHT22;30973;51.442;3.580;2023-09-30T12:51:45;21.90;99.90
45237;DHT22;30973;51.442;3.580;2023-09-30T12:54:14;22.00;99.90
45237;DHT22;30973;51.442;3.580;2023-09-30T12:56:44;22.00;99.90
45237;DHT22;30973;51.442;3.580;2023-09-30T12:59:13;21.90;99.90
45237;DHT22;30973;51.442;3.580;2023-09-30T13:01:40;21.90;99.90
45237;DHT22;30973;51.442;3.580;2023-09-30T13:04:07;21.80;99.90
45237;DHT22;30973;51.442;3.580;2023-09-30T13:06:35;21.80;99.90
45237;DHT22;30973;51.442;3.580;2023-09-30T13:09:03;21.80;99.90
45237;DHT22;30973;51.442;3.580;2023-09-30T13:11:31;21.90;99.90
45237;DHT22;30973;51.442;3.580;2023-09-30T13:14:02;21.90;99.90
45237;DHT22;30973;51.442;3.580;2023-09-30T13:16:30;21.90;99.90
45237;DHT22;30973;51.442;3.580;2023-09-30T13:18:57;22.00;99.90
45237;DHT22;30973;51.442;3.580;2023-09-30T13:21:24;22.10;99.90
45237;DHT22;30973;51.442;3.580;2023-09-30T13:23:52;22.00;99.90
45237;DHT22;30973;51.442;3.580;2023-09-30T13:26:19;22.10;99.90
45237;DHT22;30973;51.442;3.580;2023-09-30T13:28:46;22.20;99.90
45237;DHT22;30973;51.442;3.580;2023-09-30T13:31:13;22.30;99.90
45237;DHT22;30973;51.442;3.580;2023-09-30T13:33:40;22.30;99.90
45237;DHT22;30973;51.442;3.580;2023-09-30T13:36:07;22.30;99.90
45237;DHT22;30973;51.442;3.580;2023-09-30T13:38:34;22.20;99.90
45237;DHT22;30973;51.442;3.580;2023-09-30T13:41:01;22.20;99.90
45237;DHT22;30973;51.442;3.580;2023-09-30T13:43:28;22.00;99.90
45237;DHT22;30973;51.442;3.580;2023-09-30T13:45:55;22.00;99.90
45237;DHT22;30973;51.442;3.580;2023-09-30T13:48:23;21.80;99.90
45237;DHT22;30973;51.442;3.580;2023-09-30T13:50:50;21.70;99.90
45237;DHT22;30973;51.442;3.580;2023-09-30T13:53:17;21.70;99.90
45237;DHT22;30973;51.442;3.580;2023-09-30T13:55:44;21.70;99.90
45237;DHT22;30973;51.442;3.580;2023-09-30T13:58:12;21.80;99.90
45237;DHT22;30973;51.442;3.580;2023-09-30T14:00:39;21.80;99.90
45237;DHT22;30973;51.442;3.580;2023-09-30T14:03:06;21.90;99.90
45237;DHT22;30973;51.442;3.580;2023-09-30T14:05:34;21.80;99.90
45237;DHT22;30973;51.442;3.580;2023-09-30T14:08:02;21.80;99.90
45237;DHT22;30973;51.442;3.580;2023-09-30T14:10:30;21.80;99.90
45237;DHT22;30973;51.442;3.580;2023-09-30T14:12:57;21.90;99.90
45237;DHT22;30973;51.442;3.580;2023-09-30T14:15:24;21.90;99.90
45237;DHT22;30973;51.442;3.580;2023-09-30T14:17:55;21.80;99.90
45237;DHT22;30973;51.442;3.580;2023-09-30T14:20:22;21.70;99.90
45237;DHT22;30973;51.442;3.580;2023-09-30T14:22:50;21.70;99.90
45237;DHT22;30973;51.442;3.580;2023-09-30T14:25:18;21.70;99.90
45237;DHT22;30973;51.442;3.580;2023-09-30T14:27:45;21.60;99.90
45237;DHT22;30973;51.442;3.580;2023-09-30T14:30:12;21.60;99.90
45237;DHT22;30973;51.442;3.580;2023-09-30T14:32:40;21.50;99.90
45237;DHT22;30973;51.442;3.580;2023-09-30T14:35:08;21.50;99.90
45237;DHT22;30973;51.442;3.580;2023-09-30T14:37:38;21.50;99.90
45237;DHT22;30973;51.442;3.580;2023-09-30T14:40:05;21.40;99.90
45237;DHT22;30973;51.442;3.580;2023-09-30T14:42:38;21.40;99.90
45237;DHT22;30973;51.442;3.580;2023-09-30T14:45:05;21.40;99.90
45237;DHT22;30973;51.442;3.580;2023-09-30T14:47:32;21.30;99.90
45237;DHT22;30973;51.442;3.580;2023-09-30T14:50:00;21.30;99.90
45237;DHT22;30973;51.442;3.580;2023-09-30T14:52:28;21.40;99.90
45237;DHT22;30973;51.442;3.580;2023-09-30T14:54:55;21.40;99.90
45237;DHT22;30973;51.442;3.580;2023-09-30T14:57:23;21.40;99.90
45237;DHT22;30973;51.442;3.580;2023-09-30T14:59:51;21.50;99.90
45237;DHT22;30973;51.442;3.580;2023-09-30T15:02:18;21.60;99.90
45237;DHT22;30973;51.442;3.580;2023-09-30T15:04:45;21.60;99.90
45237;DHT22;30973;51.442;3.580;2023-09-30T15:07:12;21.60;99.90
45237;DHT22;30973;51.442;3.580;2023-09-30T15:09:39;21.50;99.90
45237;DHT22;30973;51.442;3.580;2023-09-30T15:12:09;21.50;99.90
45237;DHT22;30973;51.442;3.580;2023-09-30T15:14:36;21.50;99.90
45237;DHT22;30973;51.442;3.580;2023-09-30T15:17:03;21.50;99.90
45237;DHT22;30973;51.442;3.580;2023-09-30T15:19:30;21.40;99.90
45237;DHT22;30973;51.442;3.580;2023-09-30T15:21:57;21.30;99.90
45237;DHT22;30973;51.442;3.580;2023-09-30T15:24:25;21.10;99.90
45237;DHT22;30973;51.442;3.580;2023-09-30T15:26:52;21.10;99.90
45237;DHT22;30973;51.442;3.580;2023-09-30T15:29:19;21.10;99.90
45237;DHT22;30973;51.442;3.580;2023-09-30T15:31:46;21.00;99.90
45237;DHT22;30973;51.442;3.580;2023-09-30T15:34:13;21.00;99.90
45237;DHT22;30973;51.442;3.580;2023-09-30T15:36:40;21.00;99.90
45237;DHT22;30973;51.442;3.580;2023-09-30T15:39:07;20.90;99.90
45237;DHT22;30973;51.442;3.580;2023-09-30T15:41:34;20.90;99.90
45237;DHT22;30973;51.442;3.580;2023-09-30T15:44:01;20.80;99.90
45237;DHT22;30973;51.442;3.580;2023-09-30T15:46:29;20.70;99.90
45237;DHT22;30973;51.442;3.580;2023-09-30T15:48:56;20.70;99.90
45237;DHT22;30973;51.442;3.580;2023-09-30T15:51:23;20.70;99.90
45237;DHT22;30973;51.442;3.580;2023-09-30T15:53:50;20.70;99.90
45237;DHT22;30973;51.442;3.580;2023-09-30T15:56:17;20.70;99.90
45237;DHT22;30973;51.442;3.580;2023-09-30T15:58:44;20.70;99.90
45237;DHT22;30973;51.442;3.580;2023-09-30T16:01:12;20.60;99.90
45237;DHT22;30973;51.442;3.580;2023-09-30T16:03:40;20.60;99.90
45237;DHT22;30973;51.442;3.580;2023-09-30T16:06:09;20.60;99.90
45237;DHT22;30973;51.442;3.580;2023-09-30T16:08:36;20.50;99.90
45237;DHT22;30973;51.442;3.580;2023-09-30T16:11:03;20.50;99.90
45237;DHT22;30973;51.442;3.580;2023-09-30T16:13:30;20.50;99.90
45237;DHT22;30973;51.442;3.580;2023-09-30T16:15:57;20.40;99.90
45237;DHT22;30973;51.442;3.580;2023-09-30T16:18:24;20.30;99.90
45237;DHT22;30973;51.442;3.580;2023-09-30T16:20:52;20.30;99.90
45237;DHT22;30973;51.442;3.580;2023-09-30T16:23:18;20.30;99.90
45237;DHT22;30973;51.442;3.580;2023-09-30T16:25:45;20.20;99.90
45237;DHT22;30973;51.442;3.580;2023-09-30T16:28:12;20.20;99.90
45237;DHT22;30973;51.442;3.580;2023-09-30T16:30:40;20.20;99.90
45237;DHT22;30973;51.442;3.580;2023-09-30T16:33:07;20.20;99.90
45237;DHT22;30973;51.442;3.580;2023-09-30T16:35:34;20.20;99.90
45237;DHT22;30973;51.442;3.580;2023-09-30T16:38:01;20.20;99.90
45237;DHT22;30973;51.442;3.580;2023-09-30T16:40:28;20.20;99.90
45237;DHT22;30973;51.442;3.580;2023-09-30T16:42:55;20.20;99.90
45237;DHT22;30973;51.442;3.580;2023-09-30T16:45:22;20.20;99.90
45237;DHT22;30973;51.442;3.580;2023-09-30T16:47:52;20.20;99.90
45237;DHT22;30973;51.442;3.580;2023-09-30T16:50:20;20.20;99.90
45237;DHT22;30973;51.442;3.580;2023-09-30T16:52:48;20.10;99.90
45237;DHT22;30973;51.442;3.580;2023-09-30T16:55:15;20.10;99.90
45237;DHT22;30973;51.442;3.580;2023-09-30T16:57:43;20.10;99.90
45237;DHT22;30973;51.442;3.580;2023-09-30T17:00:10;20.10;99.90
45237;DHT22;30973;51.442;3.580;2023-09-30T17:02:38;20.00;99.90
45237;DHT22;30973;51.442;3.580;2023-09-30T17:05:05;20.00;99.90
45237;DHT22;30973;51.442;3.580;2023-09-30T17:07:33;20.00;99.90
45237;DHT22;30973;51.442;3.580;2023-09-30T17:10:01;20.00;99.90
45237;DHT22;30973;51.442;3.580;2023-09-30T17:12:28;19.90;99.90
45237;DHT22;30973;51.442;3.580;2023-09-30T17:14:55;19.90;99.90
45237;DHT22;30973;51.442;3.580;2023-09-30T17:17:22;19.90;99.90
45237;DHT22;30973;51.442;3.580;2023-09-30T17:19:49;19.90;99.90
45237;DHT22;30973;51.442;3.580;2023-09-30T17:22:16;19.80;99.90
45237;DHT22;30973;51.442;3.580;2023-09-30T17:24:45;19.80;99.90
45237;DHT22;30973;51.442;3.580;2023-09-30T17:27:12;19.80;99.90
45237;DHT22;30973;51.442;3.580;2023-09-30T17:29:39;19.80;99.90
45237;DHT22;30973;51.442;3.580;2023-09-30T17:32:06;19.70;99.90
45237;DHT22;30973;51.442;3.580;2023-09-30T17:34:34;19.70;99.90
45237;DHT22;30973;51.442;3.580;2023-09-30T17:37:07;19.70;99.90
45237;DHT22;30973;51.442;3.580;2023-09-30T17:39:34;19.70;99.90
45237;DHT22;30973;51.442;3.580;2023-09-30T17:42:01;19.60;99.90
45237;DHT22;30973;51.442;3.580;2023-09-30T17:44:28;19.60;99.90
45237;DHT22;30973;51.442;3.580;2023-09-30T17:46:55;19.60;99.90
45237;DHT22;30973;51.442;3.580;2023-09-30T17:49:22;19.50;99.90
45237;DHT22;30973;51.442;3.580;2023-09-30T17:51:49;19.50;99.90
45237;DHT22;30973;51.442;3.580;2023-09-30T17:54:16;19.40;99.90
45237;DHT22;30973;51.442;3.580;2023-09-30T17:56:43;19.30;99.90
45237;DHT22;30973;51.442;3.580;2023-09-30T17:59:10;19.30;99.90
45237;DHT22;30973;51.442;3.580;2023-09-30T18:01:39;19.30;99.90
45237;DHT22;30973;51.442;3.580;2023-09-30T18:04:06;19.20;99.90
45237;DHT22;30973;51.442;3.580;2023-09-30T18:06:34;19.20;99.90
45237;DHT22;30973;51.442;3.580;2023-09-30T18:09:01;19.10;99.90
45237;DHT22;30973;51.442;3.580;2023-09-30T18:11:29;19.10;99.90
45237;DHT22;30973;51.442;3.580;2023-09-30T18:13:56;19.00;99.90
45237;DHT22;30973;51.442;3.580;2023-09-30T18:16:23;19.00;99.90
45237;DHT22;30973;51.442;3.580;2023-09-30T18:18:51;19.00;99.90
45237;DHT22;30973;51.442;3.580;2023-09-30T18:21:18;18.90;99.90
45237;DHT22;30973;51.442;3.580;2023-09-30T18:23:46;18.90;99.90
45237;DHT22;30973;51.442;3.580;2023-09-30T18:26:13;18.90;99.90
45237;DHT22;30973;51.442;3.580;2023-09-30T18:28:40;18.90;99.90
45237;DHT22;30973;51.442;3.580;2023-09-30T18:31:07;18.90;99.90
45237;DHT22;30973;51.442;3.580;2023-09-30T18:33:34;18.80;99.90
45237;DHT22;30973;51.442;3.580;2023-09-30T18:36:01;18.80;99.90
45237;DHT22;30973;51.442;3.580;2023-09-30T18:38:29;18.80;99.90
45237;DHT22;30973;51.442;3.580;2023-09-30T18:40:57;18.80;99.90
45237;DHT22;30973;51.442;3.580;2023-09-30T18:43:25;18.80;99.90
45237;DHT22;30973;51.442;3.580;2023-09-30T18:45:53;18.70;99.90
45237;DHT22;30973;51.442;3.580;2023-09-30T18:48:20;18.70;99.90
45237;DHT22;30973;51.442;3.580;2023-09-30T18:50:50;18.60;99.90
45237;DHT22;30973;51.442;3.580;2023-09-30T18:53:20;18.60;99.90
45237;DHT22;30973;51.442;3.580;2023-09-30T18:55:47;18.60;99.90
45237;DHT22;30973;51.442;3.580;2023-09-30T18:58:15;18.60;99.90
45237;DHT22;30973;51.442;3.580;2023-09-30T19:00:45;18.60;99.90
45237;DHT22;30973;51.442;3.580;2023-09-30T19:03:14;18.50;99.90
45237;DHT22;30973;51.442;3.580;2023-09-30T19:05:43;18.50;99.90
45237;DHT22;30973;51.442;3.580;2023-09-30T19:08:10;18.50;99.90
45237;DHT22;30973;51.442;3.580;2023-09-30T19:10:37;18.50;99.90
45237;DHT22;30973;51.442;3.580;2023-09-30T19:13:04;18.50;99.90
45237;DHT22;30973;51.442;3.580;2023-09-30T19:15:32;18.40;99.90
45237;DHT22;30973;51.442;3.580;2023-09-30T19:17:59;18.40;99.90
45237;DHT22;30973;51.442;3.580;2023-09-30T19:20:26;18.50;99.90
45237;DHT22;30973;51.442;3.580;2023-09-30T19:22:53;18.40;99.90
45237;DHT22;30973;51.442;3.580;2023-09-30T19:25:22;18.50;99.90
45237;DHT22;30973;51.442;3.580;2023-09-30T19:27:52;18.30;99.90
45237;DHT22;30973;51.442;3.580;2023-09-30T19:30:19;18.30;99.90
45237;DHT22;30973;51.442;3.580;2023-09-30T19:32:46;18.30;99.90
45237;DHT22;30973;51.442;3.580;2023-09-30T19:35:13;18.30;99.90
45237;DHT22;30973;51.442;3.580;2023-09-30T19:37:41;18.20;99.90
45237;DHT22;30973;51.442;3.580;2023-09-30T19:40:09;18.20;99.90
45237;DHT22;30973;51.442;3.580;2023-09-30T19:42:39;18.20;99.90
45237;DHT22;30973;51.442;3.580;2023-09-30T19:45:07;18.10;99.90
45237;DHT22;30973;51.442;3.580;2023-09-30T19:47:34;18.20;99.90
45237;DHT22;30973;51.442;3.580;2023-09-30T19:50:01;18.20;99.90
45237;DHT22;30973;51.442;3.580;2023-09-30T19:52:28;18.10;99.90
45237;DHT22;30973;51.442;3.580;2023-09-30T19:54:57;18.10;99.90
45237;DHT22;30973;51.442;3.580;2023-09-30T19:57:24;18.10;99.90
45237;DHT22;30973;51.442;3.580;2023-09-30T19:59:52;18.00;99.90
45237;DHT22;30973;51.442;3.580;2023-09-30T20:02:19;18.00;99.90
45237;DHT22;30973;51.442;3.580;2023-09-30T20:04:48;18.00;99.90
45237;DHT22;30973;51.442;3.580;2023-09-30T20:07:15;17.90;99.90
45237;DHT22;30973;51.442;3.580;2023-09-30T20:09:42;18.00;99.90
45237;DHT22;30973;51.442;3.580;2023-09-30T20:12:10;17.90;99.90
45237;DHT22;30973;51.442;3.580;2023-09-30T20:14:39;17.90;99.90
45237;DHT22;30973;51.442;3.580;2023-09-30T20:17:09;17.90;99.90
45237;DHT22;30973;51.442;3.580;2023-09-30T20:19:38;17.90;99.90
45237;DHT22;30973;51.442;3.580;2023-09-30T20:22:05;17.80;99.90
45237;DHT22;30973;51.442;3.580;2023-09-30T20:24:32;17.80;99.90
45237;DHT22;30973;51.442;3.580;2023-09-30T20:27:00;17.80;99.90
45237;DHT22;30973;51.442;3.580;2023-09-30T20:29:27;17.80;99.90
45237;DHT22;30973;51.442;3.580;2023-09-30T20:31:56;17.80;99.90
45237;DHT22;30973;51.442;3.580;2023-09-30T20:34:23;17.70;99.90
45237;DHT22;30973;51.442;3.580;2023-09-30T20:36:50;17.70;99.90
45237;DHT22;30973;51.442;3.580;2023-09-30T20:39:19;17.70;99.90
45237;DHT22;30973;51.442;3.580;2023-09-30T20:41:48;17.70;99.90
45237;DHT22;30973;51.442;3.580;2023-09-30T20:44:17;17.70;99.90
45237;DHT22;30973;51.442;3.580;2023-09-30T20:46:45;17.70;99.90
45237;DHT22;30973;51.442;3.580;2023-09-30T20:49:14;17.60;99.90
45237;DHT22;30973;51.442;3.580;2023-09-30T20:51:41;17.60;99.90
45237;DHT22;30973;51.442;3.580;2023-09-30T20:54:09;17.70;99.90
45237;DHT22;30973;51.442;3.580;2023-09-30T20:56:36;17.60;99.90
45237;DHT22;30973;51.442;3.580;2023-09-30T20:59:03;17.60;99.90
45237;DHT22;30973;51.442;3.580;2023-09-30T21:01:33;17.60;99.90
45237;DHT22;30973;51.442;3.580;2023-09-30T21:04:00;17.60;99.90
45237;DHT22;30973;51.442;3.580;2023-09-30T21:06:27;17.50;99.90
45237;DHT22;30973;51.442;3.580;2023-09-30T21:08:56;17.50;99.90
45237;DHT22;30973;51.442;3.580;2023-09-30T21:11:23;17.50;99.90
45237;DHT22;30973;51.442;3.580;2023-09-30T21:13:51;17.50;99.90
45237;DHT22;30973;51.442;3.580;2023-09-30T21:16:18;17.50;99.90
45237;DHT22;30973;51.442;3.580;2023-09-30T21:18:45;17.40;99.90
45237;DHT22;30973;51.442;3.580;2023-09-30T21:21:13;17.40;99.90
45237;DHT22;30973;51.442;3.580;2023-09-30T21:23:40;17.30;99.90
45237;DHT22;30973;51.442;3.580;2023-09-30T21:26:11;17.30;99.90
45237;DHT22;30973;51.442;3.580;2023-09-30T21:28:42;17.40;99.90
45237;DHT22;30973;51.442;3.580;2023-09-30T21:31:16;17.40;99.90
45237;DHT22;30973;51.442;3.580;2023-09-30T21:33:44;17.40;99.90
45237;DHT22;30973;51.442;3.580;2023-09-30T21:36:13;17.30;99.90
45237;DHT22;30973;51.442;3.580;2023-09-30T21:38:41;17.40;99.90
45237;DHT22;30973;51.442;3.580;2023-09-30T21:41:16;17.40;99.90
45237;DHT22;30973;51.442;3.580;2023-09-30T21:43:45;17.40;99.90
45237;DHT22;30973;51.442;3.580;2023-09-30T21:46:13;17.50;99.90
45237;DHT22;30973;51.442;3.580;2023-09-30T21:48:40;17.40;99.90
45237;DHT22;30973;51.442;3.580;2023-09-30T21:51:07;17.40;99.90
45237;DHT22;30973;51.442;3.580;2023-09-30T21:53:34;17.40;99.90
45237;DHT22;30973;51.442;3.580;2023-09-30T21:56:03;17.50;99.90
45237;DHT22;30973;51.442;3.580;2023-09-30T21:58:31;17.40;99.90
45237;DHT22;30973;51.442;3.580;2023-09-30T22:00:58;17.50;99.90
45237;DHT22;30973;51.442;3.580;2023-09-30T22:03:27;17.50;99.90
45237;DHT22;30973;51.442;3.580;2023-09-30T22:05:55;17.50;99.90
45237;DHT22;30973;51.442;3.580;2023-09-30T22:08:24;17.50;99.90
45237;DHT22;30973;51.442;3.580;2023-09-30T22:10:52;17.50;99.90
45237;DHT22;30973;51.442;3.580;2023-09-30T22:13:24;17.50;99.90
45237;DHT22;30973;51.442;3.580;2023-09-30T22:15:52;17.50;99.90
45237;DHT22;30973;51.442;3.580;2023-09-30T22:18:20;17.50;99.90
45237;DHT22;30973;51.442;3.580;2023-09-30T22:20:48;17.50;99.90
45237;DHT22;30973;51.442;3.580;2023-09-30T22:23:15;17.50;99.90
45237;DHT22;30973;51.442;3.580;2023-09-30T22:25:42;17.50;99.90
45237;DHT22;30973;51.442;3.580;2023-09-30T22:28:09;17.40;99.90
45237;DHT22;30973;51.442;3.580;2023-09-30T22:30:37;17.40;99.90
45237;DHT22;30973;51.442;3.580;2023-09-30T22:33:04;17.40;99.90
45237;DHT22;30973;51.442;3.580;2023-09-30T22:35:33;17.30;99.90
45237;DHT22;30973;51.442;3.580;2023-09-30T22:38:00;17.30;99.90
45237;DHT22;30973;51.442;3.580;2023-09-30T22:40:28;17.30;99.90
45237;DHT22;30973;51.442;3.580;2023-09-30T22:42:55;17.30;99.90
45237;DHT22;30973;51.442;3.580;2023-09-30T22:45:23;17.20;99.90
45237;DHT22;30973;51.442;3.580;2023-09-30T22:47:51;17.20;99.90
45237;DHT22;30973;51.442;3.580;2023-09-30T22:50:21;17.20;99.90
45237;DHT22;30973;51.442;3.580;2023-09-30T22:52:49;17.30;99.90
45237;DHT22;30973;51.442;3.580;2023-09-30T22:55:21;17.20;99.90
45237;DHT22;30973;51.442;3.580;2023-09-30T22:57:50;17.20;99.90
45237;DHT22;30973;51.442;3.580;2023-09-30T23:00:18;17.20;99.90
45237;DHT22;30973;51.442;3.580;2023-09-30T23:02:47;17.20;99.90
45237;DHT22;30973;51.442;3.580;2023-09-30T23:05:15;17.20;99.90
45237;DHT22;30973;51.442;3.580;2023-09-30T23:07:45;17.20;99.90
45237;DHT22;30973;51.442;3.580;2023-09-30T23:10:14;17.20;99.90
45237;DHT22;30973;51.442;3.580;2023-09-30T23:12:41;17.20;99.90
45237;DHT22;30973;51.442;3.580;2023-09-30T23:15:10;17.30;99.90
45237;DHT22;30973;51.442;3.580;2023-09-30T23:17:45;17.20;99.90
45237;DHT22;30973;51.442;3.580;2023-09-30T23:20:14;17.30;99.90
45237;DHT22;30973;51.442;3.580;2023-09-30T23:22:46;17.30;99.90
45237;DHT22;30973;51.442;3.580;2023-09-30T23:25:20;17.30;99.90
45237;DHT22;30973;51.442;3.580;2023-09-30T23:27:55;17.30;99.90
45237;DHT22;30973;51.442;3.580;2023-09-30T23:30:24;17.30;99.90
45237;DHT22;30973;51.442;3.580;2023-09-30T23:32:53;17.10;99.90
45237;DHT22;30973;51.442;3.580;2023-09-30T23:35:24;17.20;99.90
45237;DHT22;30973;51.442;3.580;2023-09-30T23:37:57;17.10;99.90
45237;DHT22;30973;51.442;3.580;2023-09-30T23:40:30;17.00;99.90
45237;DHT22;30973;51.442;3.580;2023-09-30T23:42:59;17.00;99.90
45237;DHT22;30973;51.442;3.580;2023-09-30T23:45:27;17.00;99.90
45237;DHT22;30973;51.442;3.580;2023-09-30T23:47:58;16.90;99.90
45237;DHT22;30973;51.442;3.580;2023-09-30T23:50:25;17.00;99.90
45237;DHT22;30973;51.442;3.580;2023-09-30T23:52:56;17.00;99.90
45237;DHT22;30973;51.442;3.580;2023-09-30T23:55:26;17.00;99.90
45237;DHT22;30973;51.442;3.580;2023-09-30T23:57:55;16.90;99.90
